»·PEaware :: DAL414 KPDX-KLAX

DAL414 :: KPDX-KLAX

FLIGHT INFORMATION

Flight Status: Arrived
Operator:
Delta Air Lines
More flights by this operator :: More flights under this callsign
Pilot: Joshua V. (18904)
Aircraft: LOCKHEED L-1011 TRI-STAR
(L101)
More flights by this aircraft type
Origin: KPDX Portland Intl
United States
Destination: KLAX Los Angeles Intl
United States
More flights between these airports :: More routes between these airports
Route: +PTLD1 LKV J67 LIN J189 AVE SADDE8
File this flight plan on PilotEdge
Remarks:
Altitude:
(Current/Filed)
37,000ft
Speed:
(Current/Filed)
485kts
Departed: 02-Sep-20 03:03 PM
Arrived: 02-Sep-20 05:02 PM
Distance/Time
Traveled:
724nm/1:59
Distance/Time
To Go:
Arrived

Flight Plot

Page will automatically refresh every two minutes.

Flight plan parsing failed; only flown route is shown


Map Options




Map Legend


Flown Route
Filed Route
Departure Airport
Arrival Airport
Navaid (VOR, NDB)
Fix

Horizontal Profiles

Position Reports

Time Latitude Longitude Heading Altitude Ground
Speed
02-Sep-20 14:35 45.590941 -122.596292 7 46ft 0kts
02-Sep-20 14:36 45.590941 -122.596292 7 46ft 0kts
02-Sep-20 14:37 45.590941 -122.596292 7 46ft 0kts
02-Sep-20 14:38 45.590941 -122.596292 7 46ft 0kts
02-Sep-20 14:39 45.590941 -122.596292 7 46ft 0kts
02-Sep-20 14:40 45.590941 -122.596292 7 46ft 0kts
02-Sep-20 14:41 45.590941 -122.596292 7 46ft 0kts
02-Sep-20 14:42 45.590941 -122.596292 7 46ft 0kts
02-Sep-20 14:43 45.590941 -122.596292 7 46ft 0kts
02-Sep-20 14:44 45.590941 -122.596292 7 46ft 0kts
02-Sep-20 14:45 45.590941 -122.596292 7 46ft 0kts
02-Sep-20 14:46 45.590941 -122.596292 7 46ft 0kts
02-Sep-20 14:47 45.590941 -122.596292 7 46ft 0kts
02-Sep-20 14:48 45.590665 -122.596402 15 46ft 2kts
02-Sep-20 14:49 45.590120 -122.596082 300 46ft 0kts
02-Sep-20 14:50 45.590120 -122.596082 300 46ft 0kts
02-Sep-20 14:51 45.590120 -122.596083 300 46ft 0kts
02-Sep-20 14:52 45.590121 -122.596083 300 46ft 0kts
02-Sep-20 14:53 45.590121 -122.596084 300 46ft 0kts
02-Sep-20 14:54 45.590518 -122.597070 299 46ft 8kts
02-Sep-20 14:55 45.592737 -122.597936 39 46ft 10kts
02-Sep-20 14:56 45.592440 -122.592766 119 46ft 20kts
02-Sep-20 14:57 45.589754 -122.585891 118 46ft 13kts
02-Sep-20 14:58 45.588417 -122.582452 119 46ft 14kts
02-Sep-20 14:59 45.585578 -122.575167 119 46ft 22kts
02-Sep-20 15:00 45.583133 -122.568938 119 46ft 15kts
02-Sep-20 15:01 45.583273 -122.566596 2 46ft 2kts
02-Sep-20 15:02 45.590644 -122.585025 301 66ft 171kts
02-Sep-20 15:03 45.611745 -122.647935 295 3809ft 177kts
02-Sep-20 15:04 45.632456 -122.714739 295 4753ft 188kts
02-Sep-20 15:05 45.649251 -122.797110 261 7259ft 278kts
02-Sep-20 15:06 45.590945 -122.857468 177 11635ft 294kts
02-Sep-20 15:07 45.516407 -122.800390 146 14668ft 320kts
02-Sep-20 15:08 45.442769 -122.721604 145 17467ft 347kts
02-Sep-20 15:09 45.359037 -122.630606 145 19910ft 390kts
02-Sep-20 15:10 45.275628 -122.527671 146 22174ft 405kts
02-Sep-20 15:11 45.177630 -122.445611 154 24374ft 414kts
02-Sep-20 15:12 45.074788 -122.367901 154 26303ft 425kts
02-Sep-20 15:13 44.968860 -122.288294 154 27956ft 435kts
02-Sep-20 15:14 44.859845 -122.206692 154 29745ft 455kts
02-Sep-20 15:15 44.745531 -122.121447 154 31762ft 474kts
02-Sep-20 15:16 44.627472 -122.033725 154 33610ft 485kts
02-Sep-20 15:17 44.505548 -121.943568 154 34630ft 503kts
02-Sep-20 15:18 44.380746 -121.851618 154 35629ft 508kts
02-Sep-20 15:19 44.255742 -121.759921 155 36620ft 507kts
02-Sep-20 15:20 44.130313 -121.668330 155 37218ft 512kts
02-Sep-20 15:21 44.005062 -121.577243 155 37245ft 508kts
02-Sep-20 15:22 43.879570 -121.486882 156 37268ft 508kts
02-Sep-20 15:23 43.753345 -121.398853 156 37264ft 508kts
02-Sep-20 15:24 43.626593 -121.311051 156 37252ft 508kts
02-Sep-20 15:25 43.500509 -121.224077 156 37243ft 507kts
02-Sep-20 15:26 43.374165 -121.136991 156 37238ft 507kts
02-Sep-20 15:27 43.248420 -121.050401 156 37245ft 506kts
02-Sep-20 15:28 43.122386 -120.963698 156 37236ft 506kts
02-Sep-20 15:29 42.996976 -120.876584 155 37230ft 506kts
02-Sep-20 15:30 42.872040 -120.787382 155 37228ft 505kts
02-Sep-20 15:31 42.747813 -120.698517 155 37229ft 505kts
02-Sep-20 15:32 42.623693 -120.607961 154 37231ft 505kts
02-Sep-20 15:33 42.500086 -120.518136 162 37225ft 504kts
02-Sep-20 15:34 42.364102 -120.507877 193 37237ft 481kts
02-Sep-20 15:36 42.233770 -120.537295 191 37239ft 475kts
02-Sep-20 15:37 42.101327 -120.552947 188 37238ft 478kts
02-Sep-20 15:38 41.968579 -120.566992 188 37234ft 477kts
02-Sep-20 15:39 41.836164 -120.582436 188 37223ft 481kts
02-Sep-20 15:40 41.702093 -120.598519 188 37209ft 484kts
02-Sep-20 15:41 41.567734 -120.614664 188 37203ft 485kts
02-Sep-20 15:42 41.433640 -120.630216 188 37202ft 484kts
02-Sep-20 15:43 41.299087 -120.645526 188 37199ft 485kts
02-Sep-20 15:44 41.164477 -120.660947 188 37191ft 484kts
02-Sep-20 15:45 41.030015 -120.676265 188 37185ft 485kts
02-Sep-20 15:46 40.895763 -120.691423 188 37184ft 485kts
02-Sep-20 15:47 40.761887 -120.706704 188 37181ft 485kts
02-Sep-20 15:48 40.627544 -120.721623 188 37182ft 485kts
02-Sep-20 15:49 40.492996 -120.736967 187 37184ft 485kts
02-Sep-20 15:50 40.358238 -120.751944 187 37186ft 485kts
02-Sep-20 15:51 40.223662 -120.766993 187 37184ft 485kts
02-Sep-20 15:52 40.089203 -120.781960 187 37181ft 485kts
02-Sep-20 15:52 39.977170 -120.794237 187 37180ft 485kts
02-Sep-20 15:53 39.842344 -120.809793 187 37189ft 486kts
02-Sep-20 15:55 39.685020 -120.827048 187 37220ft 486kts
02-Sep-20 15:55 39.572117 -120.839687 186 37251ft 487kts
02-Sep-20 15:56 39.437288 -120.854411 186 37274ft 487kts
02-Sep-20 15:58 39.279639 -120.871439 186 37304ft 488kts
02-Sep-20 15:58 39.166631 -120.883665 186 37262ft 488kts
02-Sep-20 15:59 39.031418 -120.898188 186 37156ft 488kts
02-Sep-20 16:00 38.902145 -120.911904 186 37119ft 488kts
02-Sep-20 16:01 38.768503 -120.926144 186 37139ft 488kts
02-Sep-20 16:02 38.633280 -120.940550 186 37130ft 489kts
02-Sep-20 16:03 38.497406 -120.955116 186 37088ft 489kts
02-Sep-20 16:04 38.362199 -120.969262 186 37070ft 489kts
02-Sep-20 16:05 38.226165 -120.983466 186 37066ft 489kts
02-Sep-20 16:06 38.090401 -120.996091 180 37032ft 489kts
02-Sep-20 16:07 37.959675 -120.957090 158 37031ft 495kts
02-Sep-20 16:08 37.831095 -120.891176 160 37024ft 498kts
02-Sep-20 16:09 37.699833 -120.834724 162 37011ft 497kts
02-Sep-20 16:10 37.568783 -120.778932 161 37008ft 497kts
02-Sep-20 16:11 37.437837 -120.722698 161 37008ft 497kts
02-Sep-20 16:12 37.306953 -120.666601 161 37002ft 497kts
02-Sep-20 16:13 37.176123 -120.610474 161 37002ft 497kts
02-Sep-20 16:14 37.044996 -120.554731 161 37005ft 498kts
02-Sep-20 16:15 36.913642 -120.499049 161 37006ft 497kts
02-Sep-20 16:16 36.782601 -120.443675 161 37003ft 497kts
02-Sep-20 16:17 36.651325 -120.388307 161 36996ft 497kts
02-Sep-20 16:18 36.520330 -120.333310 161 36992ft 497kts
02-Sep-20 16:19 36.389367 -120.278393 161 36989ft 496kts
02-Sep-20 16:20 36.258756 -120.223915 161 36984ft 495kts
02-Sep-20 16:21 36.127964 -120.169707 161 36985ft 495kts
02-Sep-20 16:22 35.997291 -120.115756 161 36988ft 495kts
02-Sep-20 16:23 35.866582 -120.061904 161 36993ft 495kts
02-Sep-20 16:24 35.735810 -120.008239 161 36994ft 495kts
02-Sep-20 16:25 35.609315 -119.942235 148 37016ft 495kts
02-Sep-20 16:26 35.495197 -119.848390 144 37010ft 493kts
02-Sep-20 16:27 35.382756 -119.752088 144 37018ft 493kts
02-Sep-20 16:28 35.270058 -119.655869 144 37010ft 493kts
02-Sep-20 16:29 35.173455 -119.573602 144 36220ft 494kts
02-Sep-20 16:30 35.062892 -119.479688 144 33718ft 470kts
02-Sep-20 16:31 34.958426 -119.391213 144 31221ft 446kts
02-Sep-20 16:32 34.858884 -119.307124 144 28693ft 425kts
02-Sep-20 16:33 34.763861 -119.227027 144 25694ft 405kts
02-Sep-20 16:34 34.684335 -119.159873 144 23065ft 389kts
02-Sep-20 16:35 34.607678 -119.094616 143 20432ft 377kts
02-Sep-20 16:36 34.539160 -119.036286 143 18119ft 366kts
02-Sep-20 16:37 34.458343 -118.967574 143 15819ft 342kts
02-Sep-20 16:38 34.383841 -118.904370 143 14130ft 306kts
02-Sep-20 16:39 34.311242 -118.852978 161 13002ft 305kts
02-Sep-20 16:40 34.246314 -118.835290 168 12013ft 302kts
02-Sep-20 16:41 34.164598 -118.810129 162 11998ft 302kts
02-Sep-20 16:42 34.083719 -118.781483 162 11995ft 302kts
02-Sep-20 16:43 34.034761 -118.711432 100 12008ft 297kts
02-Sep-20 16:44 34.026932 -118.644663 95 11993ft 295kts
02-Sep-20 16:45 34.018483 -118.551001 95 11997ft 295kts
02-Sep-20 16:46 34.011578 -118.455238 88 10923ft 294kts
02-Sep-20 16:47 34.018182 -118.378960 82 9371ft 294kts
02-Sep-20 16:48 34.030577 -118.281270 81 7365ft 293kts
02-Sep-20 16:49 34.041155 -118.189661 81 5469ft 288kts
02-Sep-20 16:50 34.050740 -118.104813 81 4244ft 261kts
02-Sep-20 16:51 34.059495 -118.022675 92 3940ft 246kts
02-Sep-20 16:52 34.016665 -117.983097 201 3970ft 197kts
02-Sep-20 16:53 33.991245 -118.026674 257 4001ft 187kts
02-Sep-20 16:54 33.984215 -118.088735 263 3982ft 187kts
02-Sep-20 16:55 33.977888 -118.150709 262 3976ft 186kts
02-Sep-20 16:56 33.971554 -118.212658 262 3172ft 185kts
02-Sep-20 16:57 33.965284 -118.273684 262 2225ft 183kts
02-Sep-20 16:58 33.959728 -118.328076 262 1326ft 139kts
02-Sep-20 16:59 33.955447 -118.369792 262 711ft 127kts
02-Sep-20 17:00 33.951483 -118.408062 262 143ft 78kts
02-Sep-20 17:01 33.949990 -118.418384 238 142ft 6kts
02-Sep-20 17:02 33.948427 -118.420879 233 142ft 16kts
02-Sep-20 17:03 33.946940 -118.422258 130 142ft 4kts

Navigation Log

Ident Type
Flight plan parsing failed, navigation log unavailable